Time;durP1;ratioP1;P1;durP2;ratioP2;P2;SDS_P1;SDS_P2;PMS_P1;PMS_P2;Temp;Humidity;BMP_temperature;BMP_pressure;BME280_temperature;BME280_humidity;BME280_pressure;Samples;Min_cycle;Max_cycle;Signal;HPM_P1;HPM_P2
2021/06/07 00:01:49;;;;;;;3.97;1.08;;;17.70;87.80;;;;;;5117288;28;20028;-70
2021/06/07 00:04:15;;;;;;;3.03;1.27;;;17.70;86.10;;;;;;5117250;28;20024;-68
2021/06/07 00:06:42;;;;;;;1.60;0.80;;;17.80;87.70;;;;;;5117248;28;20020;-69
2021/06/07 00:09:10;;;;;;;2.60;1.10;;;17.80;84.00;;;;;;5116957;28;20015;-69
2021/06/07 00:11:39;;;;;;;2.47;0.77;;;17.90;85.10;;;;;;5116905;28;20023;-68
2021/06/07 00:14:05;;;;;;;1.60;0.90;;;17.90;85.40;;;;;;5116875;28;20036;-69
2021/06/07 00:16:31;;;;;;;2.03;0.80;;;18.00;83.70;;;;;;5116791;28;20023;-68
2021/06/07 00:18:57;;;;;;;3.90;0.90;;;18.10;83.50;;;;;;5117138;28;20028;-68
2021/06/07 00:21:26;;;;;;;1.85;1.30;;;18.20;84.00;;;;;;5117096;28;20081;-68
2021/06/07 00:23:53;;;;;;;2.58;0.80;;;18.20;84.00;;;;;;5116973;28;20114;-69
2021/06/07 00:26:19;;;;;;;2.17;0.80;;;18.20;83.70;;;;;;5117893;28;20315;-68
2021/06/07 00:28:46;;;;;;;1.02;0.80;;;18.20;85.10;;;;;;5121118;28;20020;-69
2021/06/07 00:31:14;;;;;;;1.30;0.93;;;18.10;84.80;;;;;;5121054;28;20031;-68
2021/06/07 00:33:40;;;;;;;2.33;0.90;;;18.10;84.90;;;;;;5121042;28;20385;-69
2021/06/07 00:36:07;;;;;;;0.63;0.50;;;18.00;84.30;;;;;;5120963;28;20315;-69
2021/06/07 00:38:34;;;;;;;3.00;0.70;;;17.90;86.00;;;;;;5120576;28;20073;-68
2021/06/07 00:41:03;;;;;;;2.38;0.85;;;17.80;87.20;;;;;;5120557;28;20023;-68
2021/06/07 00:43:29;;;;;;;1.25;0.70;;;17.80;88.30;;;;;;5120304;28;20058;-68
2021/06/07 00:45:55;;;;;;;2.70;0.70;;;17.70;88.50;;;;;;5120430;28;20098;-69
2021/06/07 00:48:21;;;;;;;3.10;1.17;;;17.50;88.60;;;;;;5120690;28;20023;-70
2021/06/07 00:51:03;;;;;;;3.58;1.30;;;17.30;89.10;;;;;;5120898;28;20023;-70
2021/06/07 00:53:29;;;;;;;1.10;0.70;;;17.10;89.40;;;;;;5120659;28;20035;-70
2021/06/07 00:56:01;;;;;;;3.40;0.70;;;17.00;90.20;;;;;;5120236;28;20315;-70
2021/06/07 00:58:37;;;;;;;2.33;0.80;;;17.00;90.40;;;;;;5120202;28;20110;-70
2021/06/07 01:01:06;;;;;;;2.58;1.00;;;17.10;90.70;;;;;;5120197;28;20039;-69
2021/06/07 01:03:32;;;;;;;2.58;1.13;;;17.10;90.60;;;;;;5120094;28;20032;-69
2021/06/07 01:05:58;;;;;;;2.42;0.70;;;17.00;90.50;;;;;;5120052;27;20068;-69
2021/06/07 01:08:24;;;;;;;3.75;0.77;;;17.00;90.00;;;;;;5120304;28;20057;-70
2021/06/07 01:10:51;;;;;;;2.28;0.60;;;17.00;90.30;;;;;;5120285;28;20023;-70
2021/06/07 01:13:18;;;;;;;0.70;0.50;;;17.00;89.30;;;;;;5120070;28;20031;-70
2021/06/07 01:15:46;;;;;;;1.10;0.50;;;17.10;88.80;;;;;;5119795;28;20024;-70
2021/06/07 01:18:17;;;;;;;1.75;0.73;;;17.10;90.00;;;;;;5120159;28;20099;-70
2021/06/07 01:20:43;;;;;;;2.97;0.90;;;17.10;88.70;;;;;;5120128;28;20030;-70
2021/06/07 01:23:09;;;;;;;1.83;0.70;;;17.10;87.70;;;;;;5120063;28;20031;-70
2021/06/07 01:25:37;;;;;;;1.27;0.50;;;17.20;86.80;;;;;;5119526;28;20293;-70
2021/06/07 01:28:05;;;;;;;2.47;0.52;;;17.30;86.00;;;;;;5119514;28;20119;-70
2021/06/07 01:30:33;;;;;;;3.13;0.65;;;17.40;85.20;;;;;;5119901;28;20027;-70
2021/06/07 01:33:01;;;;;;;3.08;0.40;;;17.50;84.20;;;;;;5119581;28;20097;-70
2021/06/07 01:35:28;;;;;;;1.38;0.50;;;17.60;83.00;;;;;;5119433;28;20039;-70
2021/06/07 01:37:55;;;;;;;0.93;0.40;;;17.70;82.60;;;;;;5119379;28;20026;-70
2021/06/07 01:40:30;;;;;;;1.20;0.43;;;17.80;81.40;;;;;;5119784;28;20027;-70
2021/06/07 01:42:56;;;;;;;2.83;0.55;;;17.90;80.80;;;;;;5119528;28;20465;-70
2021/06/07 01:45:24;;;;;;;1.98;1.42;;;17.90;82.30;;;;;;5119160;28;20031;-70
2021/06/07 01:47:52;;;;;;;0.82;0.40;;;18.00;81.80;;;;;;5119586;28;20027;-70
2021/06/07 01:50:18;;;;;;;1.88;0.50;;;18.00;80.70;;;;;;5119206;28;20153;-70
2021/06/07 01:52:47;;;;;;;0.90;0.45;;;18.00;80.30;;;;;;5119474;28;20024;-69
2021/06/07 01:55:25;;;;;;;0.85;0.45;;;18.10;79.80;;;;;;5119077;28;20020;-70
2021/06/07 01:57:52;;;;;;;1.30;0.35;;;18.20;79.10;;;;;;5119397;28;20040;-70
2021/06/07 02:00:23;;;;;;;1.35;0.40;;;18.20;79.30;;;;;;5119062;28;20016;-70
2021/06/07 02:02:48;;;;;;;0.68;0.30;;;18.30;79.40;;;;;;5119243;28;20032;-70
2021/06/07 02:05:30;;;;;;;0.90;0.40;;;18.40;78.20;;;;;;5119041;28;20053;-70
2021/06/07 02:07:59;;;;;;;1.58;0.60;;;18.40;78.20;;;;;;5119185;28;20336;-70
2021/06/07 02:10:30;;;;;;;0.40;0.30;;;18.50;77.90;;;;;;5119077;28;20073;-69
2021/06/07 02:12:57;;;;;;;0.77;0.40;;;18.60;78.30;;;;;;5118723;28;20020;-70
2021/06/07 02:15:23;;;;;;;3.25;0.55;;;18.60;78.10;;;;;;5118941;28;20027;-69
2021/06/07 02:17:49;;;;;;;4.38;0.52;;;18.50;80.20;;;;;;5118970;28;20031;-70
2021/06/07 02:20:18;;;;;;;0.75;0.40;;;18.40;81.00;;;;;;5118991;28;20042;-70
2021/06/07 02:22:46;;;;;;;2.30;0.63;;;18.20;81.30;;;;;;5118871;28;20023;-70
2021/06/07 02:25:16;;;;;;;1.98;0.70;;;18.20;81.30;;;;;;5118430;28;20024;-70
2021/06/07 02:27:43;;;;;;;2.60;0.70;;;18.10;81.50;;;;;;5118774;28;20023;-70
2021/06/07 02:30:12;;;;;;;0.70;0.50;;;18.10;81.60;;;;;;5118756;28;20023;-70
2021/06/07 02:32:38;;;;;;;2.97;0.55;;;18.10;83.20;;;;;;5118358;28;20403;-70
2021/06/07 02:35:12;;;;;;;1.25;0.50;;;18.10;82.90;;;;;;5118564;28;20024;-70
2021/06/07 02:37:38;;;;;;;1.10;0.60;;;18.10;82.50;;;;;;5118243;28;20030;-68
2021/06/07 02:40:07;;;;;;;2.35;0.55;;;18.00;82.70;;;;;;5118544;28;20028;-68
2021/06/07 02:42:33;;;;;;;2.45;0.60;;;18.10;84.60;;;;;;5118463;28;20046;-68
2021/06/07 02:44:59;;;;;;;2.08;0.65;;;18.10;85.90;;;;;;5117877;28;20344;-68
2021/06/07 02:47:25;;;;;;;1.48;0.50;;;18.00;85.90;;;;;;5118415;28;20097;-68
2021/06/07 02:49:51;;;;;;;4.90;0.60;;;17.80;85.60;;;;;;5117658;28;20028;-68
2021/06/07 02:52:16;;;;;;;0.73;0.60;;;17.60;85.10;;;;;;5117968;28;20461;-68
2021/06/07 02:54:42;;;;;;;2.90;0.65;;;17.60;86.00;;;;;;5118251;28;20047;-68
2021/06/07 02:57:08;;;;;;;2.47;0.70;;;17.60;83.20;;;;;;5118223;28;20362;-68
2021/06/07 02:59:33;;;;;;;1.20;0.40;;;17.70;85.00;;;;;;5117925;28;20070;-68
2021/06/07 03:01:59;;;;;;;0.65;0.40;;;17.70;84.20;;;;;;5118125;28;20361;-68
2021/06/07 03:04:25;;;;;;;2.58;0.60;;;17.80;83.90;;;;;;5118071;28;20019;-68
2021/06/07 03:06:51;;;;;;;0.90;0.43;;;17.90;83.30;;;;;;5117656;28;20047;-68
2021/06/07 03:09:17;;;;;;;1.05;0.32;;;17.90;82.70;;;;;;5117696;28;20020;-68
2021/06/07 03:11:42;;;;;;;2.20;0.35;;;17.90;82.20;;;;;;5117950;28;20034;-68
2021/06/07 03:14:08;;;;;;;4.57;0.47;;;18.00;81.20;;;;;;5117905;28;20373;-68
2021/06/07 03:16:34;;;;;;;1.20;0.43;;;18.10;79.60;;;;;;5117790;28;20024;-69
2021/06/07 03:18:59;;;;;;;1.23;0.30;;;18.20;78.70;;;;;;5117567;28;20036;-69
2021/06/07 03:21:25;;;;;;;2.15;0.50;;;18.30;80.80;;;;;;5117822;28;20024;-69
2021/06/07 03:23:51;;;;;;;1.55;0.55;;;18.30;80.20;;;;;;5117437;28;20110;-69
2021/06/07 03:26:17;;;;;;;0.75;0.50;;;18.30;80.70;;;;;;5117669;28;20031;-69
2021/06/07 03:28:42;;;;;;;1.00;0.40;;;18.20;81.00;;;;;;5117388;28;20027;-69
2021/06/07 03:31:09;;;;;;;1.17;0.35;;;18.20;81.90;;;;;;5117677;28;20047;-69
2021/06/07 03:33:35;;;;;;;1.05;0.43;;;18.30;80.70;;;;;;5117664;28;20024;-69
2021/06/07 03:36:02;;;;;;;2.10;0.40;;;18.30;82.80;;;;;;5117269;28;20024;-69
2021/06/07 03:38:31;;;;;;;0.90;0.50;;;18.30;82.60;;;;;;5117567;28;20028;-69
2021/06/07 03:40:59;;;;;;;3.15;0.50;;;18.30;82.30;;;;;;5117580;28;20016;-69
2021/06/07 03:43:28;;;;;;;1.38;0.40;;;18.30;83.70;;;;;;5117222;28;20062;-69
2021/06/07 03:45:54;;;;;;;2.35;0.60;;;18.20;82.30;;;;;;5117063;28;20465;-69
2021/06/07 03:48:20;;;;;;;1.35;0.50;;;18.20;83.20;;;;;;5117160;28;20028;-69
2021/06/07 03:50:46;;;;;;;1.17;0.40;;;18.20;82.60;;;;;;5117100;28;20023;-69
2021/06/07 03:53:13;;;;;;;1.67;0.43;;;18.20;82.50;;;;;;5117453;28;20099;-69
2021/06/07 03:55:40;;;;;;;1.45;0.60;;;18.20;81.00;;;;;;5117015;28;20068;-69
2021/06/07 03:58:07;;;;;;;1.05;0.50;;;18.30;80.20;;;;;;5117354;28;20322;-69
2021/06/07 04:00:35;;;;;;;2.00;0.77;;;18.30;80.40;;;;;;5118644;28;20039;-69
2021/06/07 04:03:02;;;;;;;2.13;1.00;;;18.40;79.40;;;;;;5121637;28;20051;-69
2021/06/07 04:05:28;;;;;;;1.17;0.50;;;18.50;80.50;;;;;;5121138;28;20015;-69
2021/06/07 04:07:55;;;;;;;2.75;0.50;;;18.40;81.30;;;;;;5121148;28;20028;-69
2021/06/07 04:10:23;;;;;;;5.50;0.70;;;18.40;82.00;;;;;;5121518;28;20024;-69
2021/06/07 04:12:50;;;;;;;1.58;0.60;;;18.40;84.50;;;;;;5121365;28;20030;-69
2021/06/07 04:15:18;;;;;;;1.13;0.70;;;18.40;84.40;;;;;;5121329;28;20023;-69
2021/06/07 04:17:45;;;;;;;2.53;0.70;;;18.30;85.40;;;;;;5121001;28;20030;-69
2021/06/07 04:20:14;;;;;;;3.30;0.60;;;18.20;85.10;;;;;;5121285;28;20049;-69
2021/06/07 04:22:41;;;;;;;5.47;1.90;;;18.20;84.50;;;;;;5120908;28;20028;-69
2021/06/07 04:25:08;;;;;;;3.75;1.40;;;18.10;82.90;;;;;;5120615;28;20027;-69
2021/06/07 04:27:34;;;;;;;4.22;1.17;;;18.20;84.60;;;;;;5120744;28;20110;-69
2021/06/07 04:30:04;;;;;;;1.10;0.60;;;18.20;84.40;;;;;;5120810;27;20106;-69
2021/06/07 04:32:30;;;;;;;1.63;0.70;;;18.30;83.90;;;;;;5121046;28;20047;-69
2021/06/07 04:34:55;;;;;;;3.42;0.70;;;18.30;83.20;;;;;;5120638;28;20051;-69
2021/06/07 04:37:21;;;;;;;2.47;0.70;;;18.40;84.90;;;;;;5120940;27;20077;-69
2021/06/07 04:39:47;;;;;;;2.03;0.70;;;18.40;83.60;;;;;;5120928;28;20331;-69
2021/06/07 04:42:12;;;;;;;1.10;0.68;;;18.50;81.90;;;;;;5120563;28;20122;-69
2021/06/07 04:44:38;;;;;;;1.80;0.65;;;18.50;82.00;;;;;;5120304;28;20048;-69
2021/06/07 04:47:04;;;;;;;2.63;0.70;;;18.60;82.70;;;;;;5120757;28;20028;-69
2021/06/07 04:49:30;;;;;;;1.50;0.90;;;18.60;81.30;;;;;;5120434;28;20093;-69
2021/06/07 04:51:55;;;;;;;4.18;0.70;;;18.60;80.80;;;;;;5120350;28;20023;-69
2021/06/07 04:54:21;;;;;;;3.63;0.80;;;18.50;81.10;;;;;;5120675;28;20020;-69
2021/06/07 04:56:47;;;;;;;1.35;0.50;;;18.50;81.20;;;;;;5120205;28;20024;-69
2021/06/07 04:59:13;;;;;;;2.90;0.57;;;18.50;80.60;;;;;;5120534;28;20149;-69
2021/06/07 05:01:38;;;;;;;2.17;0.70;;;18.50;80.80;;;;;;5120500;28;20027;-69
2021/06/07 05:04:04;;;;;;;7.93;3.83;;;18.50;81.50;;;;;;5120054;28;20337;-69
2021/06/07 05:06:30;;;;;;;2.75;1.05;;;18.50;81.00;;;;;;5120337;28;20031;-69
2021/06/07 05:08:56;;;;;;;1.80;0.90;;;18.50;81.50;;;;;;5120331;28;20024;-69
2021/06/07 05:11:21;;;;;;;1.27;0.40;;;18.60;81.30;;;;;;5119932;28;20046;-69
2021/06/07 05:13:47;;;;;;;0.90;0.40;;;18.60;80.40;;;;;;5119711;28;20031;-69
2021/06/07 05:16:13;;;;;;;1.45;0.43;;;18.80;81.00;;;;;;5119826;28;20051;-69
2021/06/07 05:18:38;;;;;;;1.40;0.60;;;19.00;79.30;;;;;;5119829;28;20106;-69
2021/06/07 05:21:04;;;;;;;2.78;0.82;;;19.10;80.40;;;;;;5119776;28;20039;-69
2021/06/07 05:23:30;;;;;;;0.68;0.30;;;19.10;79.10;;;;;;5120103;28;20045;-69
2021/06/07 05:25:57;;;;;;;1.25;0.40;;;19.10;78.40;;;;;;5119900;28;20027;-69
2021/06/07 05:28:24;;;;;;;1.02;0.30;;;19.20;77.80;;;;;;5119983;28;20020;-69
2021/06/07 05:30:51;;;;;;;0.80;0.40;;;19.30;78.00;;;;;;5119603;28;20149;-69
2021/06/07 05:33:18;;;;;;;1.20;0.38;;;19.30;76.40;;;;;;5119592;28;20020;-69
2021/06/07 05:35:47;;;;;;;1.40;0.20;;;19.30;77.50;;;;;;5119475;28;20027;-68
2021/06/07 05:38:14;;;;;;;2.58;0.50;;;19.30;77.80;;;;;;5119742;28;20032;-69
2021/06/07 05:40:41;;;;;;;1.23;0.30;;;19.30;77.90;;;;;;5119735;28;20027;-69
2021/06/07 05:43:08;;;;;;;0.55;0.40;;;19.30;78.90;;;;;;5119438;28;20028;-69
2021/06/07 05:45:34;;;;;;;1.15;0.50;;;19.30;79.80;;;;;;5119228;28;20106;-69
2021/06/07 05:48:00;;;;;;;0.85;0.30;;;19.40;79.30;;;;;;5119636;28;20103;-69
2021/06/07 05:50:28;;;;;;;0.75;0.30;;;19.50;76.50;;;;;;5119566;28;20043;-69
2021/06/07 05:52:54;;;;;;;0.68;0.30;;;19.50;76.70;;;;;;5119178;28;20057;-69
2021/06/07 05:55:20;;;;;;;0.43;0.30;;;19.50;76.20;;;;;;5119110;28;20031;-69
2021/06/07 05:57:48;;;;;;;1.45;0.32;;;19.50;76.50;;;;;;5119382;28;20034;-69
2021/06/07 06:00:17;;;;;;;3.03;1.25;;;19.40;77.80;;;;;;5119061;28;20088;-69
2021/06/07 06:02:43;;;;;;;2.90;0.43;;;19.40;78.50;;;;;;5119264;28;20370;-69
2021/06/07 06:05:09;;;;;;;0.95;0.40;;;19.30;77.30;;;;;;5118883;28;20423;-68
2021/06/07 06:07:35;;;;;;;4.60;0.60;;;19.20;78.80;;;;;;5119224;28;20058;-69
2021/06/07 06:10:02;;;;;;;0.68;0.30;;;19.20;79.40;;;;;;5119209;28;20349;-69
2021/06/07 06:12:28;;;;;;;0.98;0.40;;;19.20;79.30;;;;;;5119099;28;20060;-70
2021/06/07 06:14:54;;;;;;;3.80;0.88;;;19.10;80.10;;;;;;5119149;28;20031;-69
2021/06/07 06:17:19;;;;;;;1.77;0.45;;;19.00;80.30;;;;;;5119011;28;20027;-69
2021/06/07 06:19:45;;;;;;;2.17;0.52;;;19.00;81.50;;;;;;5118990;28;20307;-69
2021/06/07 06:22:11;;;;;;;1.27;0.43;;;19.10;81.50;;;;;;5118601;28;20423;-70
2021/06/07 06:24:37;;;;;;;2.10;0.45;;;19.10;80.90;;;;;;5117720;28;20024;-70
2021/06/07 06:27:03;;;;;;;1.63;0.98;;;19.20;81.00;;;;;;5118518;28;20089;-70
2021/06/07 06:29:29;;;;;;;0.60;0.40;;;19.30;82.30;;;;;;5118803;28;20019;-70
2021/06/07 06:31:55;;;;;;;2.17;0.40;;;19.40;80.40;;;;;;5118718;28;20313;-70
2021/06/07 06:34:20;;;;;;;0.88;0.40;;;19.40;79.60;;;;;;5118739;28;20024;-70
2021/06/07 06:36:46;;;;;;;3.15;0.40;;;19.50;80.30;;;;;;5118566;28;20407;-70
2021/06/07 06:39:12;;;;;;;0.90;0.40;;;19.50;77.80;;;;;;5118282;28;20428;-70
2021/06/07 06:41:39;;;;;;;2.88;0.55;;;19.50;78.60;;;;;;5118517;28;20027;-70
2021/06/07 06:44:05;;;;;;;2.17;0.60;;;19.50;79.40;;;;;;5117906;28;20451;-70
2021/06/07 06:46:31;;;;;;;1.38;0.50;;;19.60;79.80;;;;;;5118063;28;20024;-70
2021/06/07 06:48:57;;;;;;;1.20;0.30;;;19.70;78.70;;;;;;5118373;28;20028;-70
2021/06/07 06:51:23;;;;;;;1.60;0.50;;;19.80;78.10;;;;;;5118042;28;20415;-70
2021/06/07 06:53:49;;;;;;;3.80;0.40;;;19.80;78.80;;;;;;5118359;28;20038;-70
2021/06/07 06:56:15;;;;;;;1.75;0.50;;;20.00;79.70;;;;;;5117903;28;20015;-70
2021/06/07 06:58:41;;;;;;;1.15;0.45;;;20.10;77.50;;;;;;5117895;28;20027;-70
2021/06/07 07:01:08;;;;;;;2.83;0.40;;;20.10;78.70;;;;;;5118182;28;20016;-70
2021/06/07 07:03:34;;;;;;;1.42;0.57;;;20.30;79.20;;;;;;5117876;28;20031;-70
2021/06/07 07:06:00;;;;;;;0.57;0.30;;;20.40;78.90;;;;;;5117626;28;20027;-70
2021/06/07 07:08:29;;;;;;;1.02;0.40;;;20.50;79.70;;;;;;5118084;28;20098;-70
2021/06/07 07:10:55;;;;;;;0.80;0.40;;;20.50;73.30;;;;;;5117678;28;20027;-70
2021/06/07 07:13:21;;;;;;;0.82;0.30;;;20.60;75.20;;;;;;5117768;28;20031;-70
2021/06/07 07:15:47;;;;;;;2.00;0.40;;;20.80;76.50;;;;;;5117551;28;20102;-70
2021/06/07 07:18:13;;;;;;;1.20;0.57;;;21.00;76.80;;;;;;5117912;28;20034;-70
2021/06/07 07:20:39;;;;;;;0.90;0.50;;;21.00;76.50;;;;;;5117523;28;20380;-70
2021/06/07 07:23:06;;;;;;;4.65;0.63;;;21.10;75.10;;;;;;5117802;28;20315;-70
2021/06/07 07:25:32;;;;;;;0.80;0.50;;;21.20;76.90;;;;;;5117327;28;20016;-70
2021/06/07 07:27:58;;;;;;;0.98;0.47;;;21.30;75.60;;;;;;5117410;28;20030;-70
2021/06/07 07:30:28;;;;;;;1.75;0.68;;;21.40;78.90;;;;;;5117385;28;20110;-70
2021/06/07 07:32:55;;;;;;;0.88;0.57;;;21.30;77.40;;;;;;5117643;28;20088;-70
2021/06/07 07:35:22;;;;;;;1.85;0.60;;;21.30;78.10;;;;;;5117226;28;20027;-70
2021/06/07 07:37:48;;;;;;;1.38;0.60;;;21.20;80.00;;;;;;5117304;28;20053;-70
2021/06/07 07:40:18;;;;;;;0.90;0.55;;;21.20;79.20;;;;;;5117581;28;20028;-70
2021/06/07 07:42:44;;;;;;;1.70;0.60;;;21.20;80.30;;;;;;5117519;28;20027;-70
2021/06/07 07:45:11;;;;;;;1.02;0.50;;;21.20;77.10;;;;;;5116955;28;20047;-70
2021/06/07 07:47:37;;;;;;;4.78;0.80;;;21.20;76.60;;;;;;5117134;28;20048;-70
2021/06/07 07:50:07;;;;;;;3.22;1.02;;;21.20;74.40;;;;;;5117453;28;20028;-70
2021/06/07 07:52:32;;;;;;;3.58;0.60;;;21.20;78.80;;;;;;5117362;28;20104;-70
2021/06/07 07:54:58;;;;;;;1.73;0.70;;;21.20;78.00;;;;;;5117461;28;20027;-70
2021/06/07 07:57:25;;;;;;;1.55;0.73;;;21.20;78.50;;;;;;5117101;28;20376;-70
2021/06/07 07:59:51;;;;;;;1.85;0.90;;;21.20;77.20;;;;;;5117381;28;20030;-70
2021/06/07 08:02:16;;;;;;;3.67;0.80;;;21.40;79.20;;;;;;5117036;28;20334;-70
2021/06/07 08:04:42;;;;;;;1.08;0.70;;;21.40;77.90;;;;;;5116952;28;20035;-70
2021/06/07 08:07:08;;;;;;;2.85;0.80;;;21.40;76.90;;;;;;5117309;28;20027;-70
2021/06/07 08:09:35;;;;;;;3.05;0.80;;;21.50;75.80;;;;;;5117343;28;20016;-70
2021/06/07 08:12:02;;;;;;;1.50;1.27;;;21.60;80.40;;;;;;5117229;28;20035;-70
2021/06/07 08:14:28;;;;;;;3.55;1.58;;;21.80;73.90;;;;;;5117258;28;20032;-70
2021/06/07 08:16:55;;;;;;;1.15;1.00;;;21.90;74.00;;;;;;5116816;28;20031;-70
2021/06/07 08:19:21;;;;;;;3.92;1.40;;;22.00;78.40;;;;;;5116878;28;20035;-70
2021/06/07 08:21:47;;;;;;;2.58;1.50;;;22.10;75.50;;;;;;5116828;28;20036;-70
2021/06/07 08:24:13;;;;;;;1.85;1.38;;;22.10;76.20;;;;;;5117112;28;20038;-70
2021/06/07 08:26:39;;;;;;;2.85;1.48;;;22.20;74.70;;;;;;5117122;28;20396;-70
2021/06/07 08:29:07;;;;;;;3.47;1.00;;;22.20;76.30;;;;;;5117126;28;20112;-70
2021/06/07 08:31:33;;;;;;;1.30;0.70;;;22.30;74.90;;;;;;5117076;28;20084;-70
2021/06/07 08:33:59;;;;;;;1.55;0.90;;;22.30;74.60;;;;;;5117077;28;20020;-70
2021/06/07 08:36:25;;;;;;;2.10;1.17;;;22.30;76.90;;;;;;5116955;28;20027;-70
2021/06/07 08:38:51;;;;;;;1.60;0.90;;;22.50;74.90;;;;;;5116687;28;20030;-70
2021/06/07 08:41:17;;;;;;;0.95;0.70;;;22.70;73.50;;;;;;5117027;28;20024;-71
2021/06/07 08:43:43;;;;;;;1.77;1.05;;;22.90;73.10;;;;;;5116667;28;20377;-70
2021/06/07 08:46:13;;;;;;;1.90;0.90;;;22.90;73.20;;;;;;5116532;28;20040;-70
2021/06/07 08:48:39;;;;;;;1.92;1.00;;;22.80;72.30;;;;;;5119845;28;20099;-70
2021/06/07 08:51:06;;;;;;;1.48;1.00;;;22.70;74.50;;;;;;5120752;28;20019;-70
2021/06/07 08:53:32;;;;;;;2.10;1.15;;;22.60;76.00;;;;;;5120415;28;20020;-70
2021/06/07 08:55:58;;;;;;;1.70;1.10;;;22.60;73.40;;;;;;5120574;28;20047;-70
2021/06/07 08:58:25;;;;;;;1.67;1.00;;;22.60;72.60;;;;;;5120268;28;20059;-70
2021/06/07 09:00:51;;;;;;;1.50;1.20;;;22.60;72.30;;;;;;5120226;28;20077;-71
2021/06/07 09:03:20;;;;;;;6.10;1.42;;;22.70;74.10;;;;;;5120700;28;20032;-71
2021/06/07 09:05:54;;;;;;;3.50;1.15;;;22.80;73.30;;;;;;5119964;28;20102;-70
2021/06/07 09:08:20;;;;;;;3.47;1.20;;;22.60;72.70;;;;;;5120444;28;20024;-70
2021/06/07 09:10:51;;;;;;;3.05;1.13;;;22.40;73.50;;;;;;5120045;28;20432;-70
2021/06/07 09:13:20;;;;;;;1.92;1.08;;;22.30;73.50;;;;;;5120007;28;20027;-70
2021/06/07 09:15:57;;;;;;;2.33;1.30;;;22.00;74.40;;;;;;5120193;28;20082;-70
2021/06/07 09:18:42;;;;;;;2.83;1.00;;;21.70;74.30;;;;;;5120215;28;20055;-70
2021/06/07 09:21:13;;;;;;;1.73;1.10;;;21.50;74.70;;;;;;5120134;28;20027;-70
2021/06/07 09:23:47;;;;;;;3.38;1.20;;;21.50;75.20;;;;;;5119815;28;20039;-70
2021/06/07 09:26:32;;;;;;;3.13;1.50;;;21.50;76.90;;;;;;5119998;28;20066;-71
2021/06/07 09:29:13;;;;;;;4.05;1.42;;;21.40;76.20;;;;;;5120074;28;20020;-70
2021/06/07 09:31:44;;;;;;;4.18;1.27;;;21.40;77.10;;;;;;5119872;28;20026;-70
2021/06/07 09:34:22;;;;;;;2.67;1.13;;;21.40;78.50;;;;;;5119941;28;20320;-70
2021/06/07 09:36:47;;;;;;;2.13;1.40;;;21.40;80.70;;;;;;5119824;28;20028;-71
2021/06/07 09:39:17;;;;;;;2.50;1.40;;;21.30;79.10;;;;;;5119783;28;20050;-70
2021/06/07 09:42:02;;;;;;;1.95;1.23;;;21.10;77.60;;;;;;5119420;28;20043;-70
2021/06/07 09:44:47;;;;;;;1.90;1.13;;;21.00;80.10;;;;;;5119073;28;20127;-70
2021/06/07 09:47:24;;;;;;;2.28;1.25;;;20.90;80.40;;;;;;5119723;28;20031;-70
2021/06/07 09:49:55;;;;;;;2.17;1.20;;;21.00;81.20;;;;;;5119489;28;20099;-70
2021/06/07 09:52:43;;;;;;;1.80;1.40;;;20.90;80.70;;;;;;5119285;28;20038;-70
2021/06/07 09:55:11;;;;;;;2.85;1.52;;;20.70;87.20;;;;;;5119514;27;20035;-70
2021/06/07 09:57:45;;;;;;;1.33;1.23;;;20.50;84.60;;;;;;5119449;28;20032;-70
2021/06/07 10:00:12;;;;;;;1.63;0.90;;;20.50;83.90;;;;;;5119426;28;20301;-70
2021/06/07 10:02:38;;;;;;;2.22;0.90;;;20.60;84.30;;;;;;5119278;28;20027;-70
2021/06/07 10:05:05;;;;;;;3.45;1.00;;;20.70;83.60;;;;;;5119186;28;20023;-70
2021/06/07 10:07:31;;;;;;;2.13;1.10;;;20.90;84.70;;;;;;5119248;28;20019;-70
2021/06/07 10:10:13;;;;;;;1.73;0.70;;;21.10;82.40;;;;;;5118915;28;20023;-70
2021/06/07 10:12:40;;;;;;;1.92;1.05;;;21.30;82.80;;;;;;5118828;28;20081;-71
2021/06/07 10:15:08;;;;;;;2.25;0.93;;;21.60;80.10;;;;;;5118940;28;20059;-71
2021/06/07 10:17:34;;;;;;;1.35;0.68;;;21.80;79.20;;;;;;5111692;28;20080;-71
2021/06/07 10:22:33;;;;;;;0.90;0.63;;;21.90;77.10;;;;;;5119001;28;20067;-71
2021/06/07 10:24:59;;;;;;;1.85;0.77;;;22.00;77.50;;;;;;5118769;28;20335;-70
2021/06/07 10:27:25;;;;;;;1.83;0.60;;;22.10;76.70;;;;;;5118855;28;20019;-71
2021/06/07 10:29:51;;;;;;;1.20;0.57;;;22.30;75.80;;;;;;5118846;28;20024;-70
2021/06/07 10:32:22;;;;;;;1.67;0.73;;;22.50;75.30;;;;;;5118728;28;20020;-71
2021/06/07 10:34:49;;;;;;;1.05;0.73;;;22.80;71.90;;;;;;5118369;28;20039;-71
2021/06/07 10:37:15;;;;;;;1.33;0.60;;;23.10;72.70;;;;;;5118381;28;20020;-71
2021/06/07 10:39:41;;;;;;;0.80;0.60;;;23.20;73.60;;;;;;5118297;28;20031;-71
2021/06/07 10:42:10;;;;;;;1.33;0.55;;;23.30;73.70;;;;;;5118519;28;20020;-71
2021/06/07 10:44:41;;;;;;;1.17;0.60;;;23.10;72.20;;;;;;5117932;28;20052;-71
2021/06/07 10:47:10;;;;;;;1.13;0.50;;;23.00;71.70;;;;;;5118451;28;20095;-71
2021/06/07 10:50:09;;;;;;;1.38;0.65;;;22.90;71.40;;;;;;5118016;28;20016;-71
2021/06/07 10:52:53;;;;;;;4.45;0.90;;;23.00;71.50;;;;;;5118382;28;20019;-71
2021/06/07 10:55:24;;;;;;;1.35;0.88;;;22.80;71.80;;;;;;5118352;28;20335;-71
2021/06/07 10:58:20;;;;;;;1.30;0.90;;;22.90;71.50;;;;;;5117996;28;20144;-71
2021/06/07 11:00:49;;;;;;;2.00;1.10;;;22.90;75.90;;;;;;5104603;28;20162;-71
2021/06/07 11:03:19;;;;;;;1.63;0.95;;;23.20;71.10;;;;;;5118179;28;20024;-71
2021/06/07 11:05:47;;;;;;;4.78;1.00;;;23.50;71.10;;;;;;5117967;28;20057;-71
2021/06/07 11:08:30;;;;;;;1.63;0.77;;;23.70;72.70;;;;;;5118051;28;20327;-71
2021/06/07 11:10:59;;;;;;;1.08;0.80;;;24.00;72.00;;;;;;5117140;28;20024;-71
2021/06/07 11:13:45;;;;;;;1.48;1.05;;;24.20;68.50;;;;;;5117759;28;20036;-71
2021/06/07 11:16:28;;;;;;;4.55;1.05;;;24.10;72.30;;;;;;5117987;28;20105;-71
2021/06/07 11:19:08;;;;;;;2.05;1.00;;;24.20;71.70;;;;;;5117636;28;20024;-71
2021/06/07 11:21:47;;;;;;;1.35;0.80;;;24.20;70.60;;;;;;5117594;28;20031;-71
2021/06/07 11:24:24;;;;;;;1.08;0.63;;;24.20;72.80;;;;;;5117730;28;20144;-71
2021/06/07 11:26:50;;;;;;;5.15;0.90;;;24.20;73.10;;;;;;5117379;28;20028;-71
2021/06/07 11:29:16;;;;;;;1.42;0.85;;;24.20;72.60;;;;;;5117740;28;20027;-71
2021/06/07 11:31:48;;;;;;;1.20;0.73;;;24.20;71.90;;;;;;5117751;28;20110;-71
2021/06/07 11:34:34;;;;;;;1.30;0.80;;;24.20;73.40;;;;;;5117409;28;20027;-71
2021/06/07 11:37:00;;;;;;;2.10;0.85;;;24.10;73.00;;;;;;5106554;28;20032;-71
2021/06/07 11:39:46;;;;;;;2.70;0.70;;;24.00;70.90;;;;;;5117342;28;20022;-71
2021/06/07 11:42:14;;;;;;;;;;;24.10;71.00;;;;;;5117727;28;20028;-71
2021/06/07 11:44:43;;;;;;;1.65;0.60;;;24.00;70.90;;;;;;5117041;28;20299;-71
2021/06/07 11:47:21;;;;;;;0.90;0.50;;;24.10;73.40;;;;;;5117506;28;20027;-71
2021/06/07 11:49:59;;;;;;;2.70;0.60;;;24.10;70.60;;;;;;5117177;28;20034;-71
2021/06/07 11:52:47;;;;;;;1.75;0.60;;;24.30;73.40;;;;;;5117099;28;20435;-71
2021/06/07 11:55:31;;;;;;;2.97;0.85;;;24.40;72.50;;;;;;5117090;28;20427;-71
2021/06/07 11:58:19;;;;;;;1.13;0.60;;;24.40;70.00;;;;;;5117459;28;20032;-71
2021/06/07 12:00:48;;;;;;;0.82;0.60;;;24.20;70.70;;;;;;5117142;28;20037;-71
2021/06/07 12:03:17;;;;;;;0.80;0.57;;;24.20;71.10;;;;;;5117054;28;20153;-70
2021/06/07 12:05:43;;;;;;;1.38;0.85;;;24.10;74.90;;;;;;5116866;28;20038;-71
2021/06/07 12:08:11;;;;;;;1.00;0.73;;;23.90;74.30;;;;;;5117019;28;20028;-71
2021/06/07 12:10:38;;;;;;;2.00;0.70;;;23.70;71.30;;;;;;5117296;28;20031;-71
2021/06/07 12:13:34;;;;;;;1.98;0.80;;;23.70;73.30;;;;;;5117229;28;20012;-71
2021/06/07 12:16:09;;;;;;;1.25;0.80;;;23.90;70.60;;;;;;5104433;28;20101;-71
2021/06/07 12:18:42;;;;;;;2.13;0.70;;;23.90;74.20;;;;;;5116990;28;20476;-71
2021/06/07 12:21:14;;;;;;;1.27;0.60;;;23.80;75.70;;;;;;5117769;28;20325;-71
2021/06/07 12:23:47;;;;;;;1.73;0.85;;;23.60;74.40;;;;;;5120946;28;20023;-71
2021/06/07 12:29:23;;;;;;;2.97;0.90;;;23.50;75.70;;;;;;5121374;28;20038;-71
2021/06/07 12:32:07;;;;;;;;;;;23.40;74.40;;;;;;5121518;28;20125;-71
2021/06/07 12:34:56;;;;;;;1.00;0.50;;;23.20;75.20;;;;;;5121047;28;19907;-70
2021/06/07 12:37:29;;;;;;;6.00;1.00;;;23.20;74.80;;;;;;5121060;28;20027;-71
2021/06/07 12:40:31;;;;;;;3.17;2.38;;;23.20;76.60;;;;;;5120695;28;20027;-71
2021/06/07 12:43:18;;;;;;;1.10;0.80;;;23.30;75.10;;;;;;5057963;28;20423;-71
2021/06/07 12:45:54;;;;;;;4.40;2.28;;;23.30;70.80;;;;;;5117508;28;20067;-71
2021/06/07 12:48:25;;;;;;;5.90;4.43;;;23.40;71.90;;;;;;5120831;28;20366;-71
2021/06/07 12:50:53;;;;;;;10.18;7.05;;;23.30;74.10;;;;;;5120533;28;20019;-71
2021/06/07 12:53:20;;;;;;;3.00;2.28;;;23.40;75.60;;;;;;5120724;28;20124;-71
2021/06/07 12:55:48;;;;;;;2.25;1.00;;;23.40;71.50;;;;;;5120341;28;20024;-71
2021/06/07 12:58:17;;;;;;;1.27;0.70;;;23.50;74.70;;;;;;5120295;28;20110;-70
2021/06/07 13:00:48;;;;;;;1.08;0.60;;;23.50;73.40;;;;;;5120586;28;20027;-71
2021/06/07 13:03:21;;;;;;;0.80;0.55;;;23.40;73.80;;;;;;5120566;28;20028;-71